Airfield :
LOGIN :

Register | Disclaimer

   EN    FR    IT 

 










Legend :    VFR   Marginal VFR   IFR   Intensive IFR   Very Intensive IFR
Visi :
Ceiling :
>= 8 km
>= 3000ft
5 to 8 km
1000 to 3000 ft
1500m to 5 km
500 to 1000 ft
800 to 1500m
200 to 500 ft
< 800m
< 200 ft
Symbols :   Thunderstorms  Fog  Heavy snow  Heavy precipitations  Wind > 20 kt
SIGMETs :     Misc.  Thunderstorms  Icing  Turbulence  Mountain Waves  Volcanic Ashes






- Airport Elevation : 80 ft
- IATA code : LPL


EGGP - Liverpool John Lennon

CURRENT METAR :
  • 161220Z 16005KT 120V190 9999 FEW035 14/10 Q1018

EXPIRED METARs :
  • 161150Z 15004KT 100V190 9999 FEW035 14/10 Q1018
  • 161120Z 16007KT CAVOK 13/09 Q1019
  • 161050Z 16010KT CAVOK 12/08 Q1019
  • 161020Z 17008KT CAVOK 11/08 Q1019
  • 160950Z 17008KT 9999 FEW049 11/08 Q1019

TAF TAF EGGP
Valid from the 16 at 12:00 until the 17 at 12:00 UTC


161100Z 1612/1712 17009KT 9999 SCT040
TEMPO 1622/1707 6000 RA BKN014
PROB30
TEMPO 1623/1707 3000 +RA BKN008
BECMG 1707/1710 BKN014
PROB30
TEMPO 1708/1712 6000 -RADZ BKN008
ATIS : +44 151 907 2000 (option 5 or ext 5150)
Met : +44 871 750 5150



MET'MAP, your aeronautical weather chart ! - Copyright ORBIFLY December 2007 - Disclaimer

ORBIFLY MET'MAP TEAM :

Programming & Development : Alexandra Zaïnal
Concept & original design : Baudouin d'Aumeries
Assistance for programming : Marc-Olivier Méhu
Technical & hardware support : Manuel Goepfert

Contact : metmap@orbifly.com




SOURCES & CREDITS :

   NOAA